createdAt,value
2023-11-15T00:00:19.558Z,97143.79
2023-11-15T00:02:49.566Z,97133.88
2023-11-15T00:05:17.300Z,97128.50
2023-11-15T00:07:45.421Z,97135.80
2023-11-15T00:10:14.872Z,97134.67
2023-11-15T00:12:43.874Z,97135.91
2023-11-15T00:15:11.373Z,97142.08
2023-11-15T00:17:38.974Z,97144.06
2023-11-15T00:20:07.279Z,97141.38
2023-11-15T00:22:35.099Z,97137.85
2023-11-15T00:25:04.921Z,97132.52
2023-11-15T00:27:32.977Z,97138.72
2023-11-15T00:30:01.266Z,97139.42
2023-11-15T00:32:29.169Z,97141.34
2023-11-15T00:34:57.005Z,97139.91
2023-11-15T00:37:24.849Z,97144.11
2023-11-15T00:39:53.398Z,97143.47
2023-11-15T00:42:21.021Z,97136.36
2023-11-15T00:44:48.600Z,97142.56
2023-11-15T00:47:16.149Z,97148.81
2023-11-15T00:49:47.048Z,97144.25
2023-11-15T00:52:16.834Z,97136.12
2023-11-15T00:54:44.379Z,97132.77
2023-11-15T00:57:12.106Z,97129.16
2023-11-15T00:59:45.721Z,97111.10
2023-11-15T01:02:15.296Z,97106.85
2023-11-15T01:04:47.820Z,97105.95
2023-11-15T01:07:15.404Z,97107.66
2023-11-15T01:09:44.087Z,97103.94
2023-11-15T01:12:14.233Z,97096.20
2023-11-15T01:14:44.708Z,97088.80
2023-11-15T01:17:12.318Z,97080.60
2023-11-15T01:19:39.853Z,97079.60
2023-11-15T01:22:10.460Z,97083.14
2023-11-15T01:24:42.719Z,97079.11
2023-11-15T01:27:10.298Z,97070.58
2023-11-15T01:29:38.209Z,97065.41
2023-11-15T01:32:05.833Z,97069.42
2023-11-15T01:34:33.359Z,97067.44
2023-11-15T01:37:04.101Z,97072.88
2023-11-15T01:39:31.618Z,97076.86
2023-11-15T01:41:59.448Z,97077.52
2023-11-15T01:44:27.058Z,97083.73
2023-11-15T01:46:54.710Z,97091.06
2023-11-15T01:49:22.962Z,97093.40
2023-11-15T01:51:54.891Z,97091.23
2023-11-15T01:54:22.941Z,97085.00
2023-11-15T01:56:50.467Z,97081.10
2023-11-15T01:59:21.136Z,97076.68
2023-11-15T02:01:49.093Z,97071.45
2023-11-15T02:04:16.607Z,97071.40
2023-11-15T02:06:44.149Z,97063.56
2023-11-15T02:09:15.216Z,97057.80
2023-11-15T02:11:45.340Z,97057.99
2023-11-15T02:14:15.758Z,97055.52
2023-11-15T02:16:46.004Z,97051.23
2023-11-15T02:19:17.230Z,97047.96
2023-11-15T02:21:45.815Z,97046.48
2023-11-15T02:24:13.334Z,97050.30
2023-11-15T02:26:40.921Z,97046.34
2023-11-15T02:29:09.007Z,97050.58
2023-11-15T02:31:36.774Z,97047.52
2023-11-15T02:34:04.468Z,97040.87
2023-11-15T02:36:32.727Z,97036.98
2023-11-15T02:39:00.667Z,97030.64
2023-11-15T02:41:28.245Z,97028.94
2023-11-15T02:43:57.101Z,97030.54
2023-11-15T02:46:30.163Z,97029.16
2023-11-15T02:48:57.616Z,97020.10
2023-11-15T02:51:25.151Z,97029.16
2023-11-15T02:53:53.463Z,97032.65
2023-11-15T02:56:21.364Z,97030.46
2023-11-15T02:58:51.257Z,97032.17
2023-11-15T03:01:18.995Z,97034.54
2023-11-15T03:03:49.087Z,97027.36
2023-11-15T03:06:16.809Z,97034.38
2023-11-15T03:08:44.418Z,97044.59
2023-11-15T03:11:12.165Z,97050.31
2023-11-15T03:13:39.775Z,97052.88
2023-11-15T03:16:08.044Z,97053.05
2023-11-15T03:18:35.698Z,97054.39
2023-11-15T03:21:04.266Z,97049.95
2023-11-15T03:23:31.897Z,97054.10
2023-11-15T03:26:00.256Z,97056.09
2023-11-15T03:28:27.719Z,97053.69
2023-11-15T03:30:55.615Z,97040.63
2023-11-15T03:33:23.333Z,97034.17
2023-11-15T03:35:51.171Z,97035.20
2023-11-15T03:38:18.818Z,97044.09
2023-11-15T03:40:46.287Z,97042.63
2023-11-15T03:43:13.785Z,97034.27
2023-11-15T03:45:41.332Z,97038.45
2023-11-15T03:48:08.979Z,97027.38
2023-11-15T03:50:36.649Z,97029.15
2023-11-15T03:53:08.967Z,97037.98
2023-11-15T03:55:38.844Z,97041.56
2023-11-15T03:58:06.360Z,97037.56
2023-11-15T04:00:33.963Z,97036.13
2023-11-15T04:03:04.028Z,97044.20
2023-11-15T04:05:33.076Z,97044.61
2023-11-15T04:08:00.646Z,97034.66
2023-11-15T04:10:30.650Z,97033.95
2023-11-15T04:12:58.290Z,97032.37
2023-11-15T04:15:28.061Z,97026.31
2023-11-15T04:25:35.635Z,97033.54
2023-11-15T04:28:05.896Z,97038.55
2023-11-15T04:30:33.892Z,97039.63
2023-11-15T04:33:01.439Z,97046.94
2023-11-15T04:35:29.015Z,97048.66
2023-11-15T04:37:58.631Z,97048.52
2023-11-15T04:40:30.563Z,97046.42
2023-11-15T04:43:00.525Z,97039.73
2023-11-15T04:45:28.085Z,97040.48
2023-11-15T04:47:57.856Z,97046.13
2023-11-15T04:50:26.806Z,97049.34
2023-11-15T04:52:57.785Z,97047.08
2023-11-15T04:55:26.155Z,97042.06
2023-11-15T04:57:53.642Z,97042.77
2023-11-15T05:00:21.280Z,97043.70
2023-11-15T05:02:48.936Z,97046.27
2023-11-15T05:05:16.537Z,97046.36
2023-11-15T05:07:44.134Z,97045.10
2023-11-15T05:10:11.756Z,97038.77
2023-11-15T05:12:39.253Z,97028.60
2023-11-15T05:15:07.744Z,97028.52
2023-11-15T05:17:35.388Z,97026.48
2023-11-15T05:20:03.039Z,97014.84
2023-11-15T05:22:30.490Z,97016.59
2023-11-15T05:25:00.479Z,97009.34
2023-11-15T05:27:28.180Z,97005.31
2023-11-15T05:29:55.612Z,97004.13
2023-11-15T05:32:23.269Z,96996.59
2023-11-15T05:34:50.824Z,96991.83
2023-11-15T05:37:18.963Z,96993.76
2023-11-15T05:39:46.468Z,96993.38
2023-11-15T05:42:13.926Z,96997.27
2023-11-15T05:44:41.420Z,97003.94
2023-11-15T05:47:09.176Z,97007.48
2023-11-15T05:49:39.042Z,97006.33
2023-11-15T05:52:06.634Z,97006.58
2023-11-15T05:54:34.303Z,97010.04
2023-11-15T05:57:02.389Z,97014.33
2023-11-15T05:59:29.898Z,97015.33
2023-11-15T06:01:57.501Z,97016.30
2023-11-15T06:04:25.169Z,97017.59
2023-11-15T06:06:52.730Z,97018.14
2023-11-15T06:09:20.241Z,97020.52
2023-11-15T06:11:47.885Z,97015.92
2023-11-15T06:14:16.942Z,97012.83
2023-11-15T06:16:44.592Z,97013.35
2023-11-15T06:19:12.091Z,97015.27
2023-11-15T06:21:43.555Z,97013.96
2023-11-15T06:24:11.377Z,97009.48
2023-11-15T06:26:39.116Z,97005.83
2023-11-15T06:29:06.744Z,97002.52
2023-11-15T06:31:37.496Z,96999.33
2023-11-15T06:34:10.129Z,97002.55
2023-11-15T06:36:38.299Z,97000.76
2023-11-15T06:39:07.317Z,97002.15
2023-11-15T06:41:40.372Z,97003.63
2023-11-15T06:44:08.649Z,97002.05
2023-11-15T06:46:39.737Z,97001.12
2023-11-15T06:49:08.313Z,97003.30
2023-11-15T06:51:35.828Z,97001.95
2023-11-15T06:54:04.015Z,97002.70
2023-11-15T06:56:31.637Z,96999.70
2023-11-15T06:58:59.184Z,97004.21
2023-11-15T07:01:26.825Z,97007.70
2023-11-15T07:03:55.677Z,97007.28
2023-11-15T07:06:23.398Z,97009.67
2023-11-15T07:08:51.118Z,97011.01
2023-11-15T07:11:18.603Z,97007.98
2023-11-15T07:13:46.082Z,97010.27
2023-11-15T07:16:13.672Z,97011.86
2023-11-15T07:18:41.322Z,97016.02
2023-11-15T07:21:08.922Z,97016.32
2023-11-15T07:23:37.062Z,97019.73
2023-11-15T07:26:05.471Z,97025.02
2023-11-15T07:28:33.033Z,97023.50
2023-11-15T07:31:00.791Z,97022.16
2023-11-15T07:33:28.592Z,97018.67
2023-11-15T07:35:57.631Z,97019.05
2023-11-15T07:38:25.901Z,97019.36
2023-11-15T07:40:53.651Z,97017.53
2023-11-15T07:43:21.376Z,97019.38
2023-11-15T07:45:53.239Z,97021.35
2023-11-15T07:48:21.112Z,97024.95
2023-11-15T07:50:48.692Z,97027.14
2023-11-15T07:53:16.358Z,97022.67
2023-11-15T07:55:43.958Z,97020.53
2023-11-15T07:58:12.463Z,97026.34
2023-11-15T08:00:39.922Z,97029.73
2023-11-15T08:03:09.424Z,97035.88
2023-11-15T08:05:37.711Z,97038.06
2023-11-15T08:08:07.673Z,97036.33
2023-11-15T08:10:38.832Z,97035.48
2023-11-15T08:13:06.581Z,97034.77
2023-11-15T08:15:34.065Z,97035.38
2023-11-15T08:18:01.867Z,97032.02
2023-11-15T08:20:29.372Z,97026.77
2023-11-15T08:22:58.435Z,97026.85
2023-11-15T08:25:26.583Z,97030.95
2023-11-15T08:27:54.101Z,97030.30
2023-11-15T08:30:22.575Z,97030.20
2023-11-15T08:32:50.331Z,97031.10
2023-11-15T08:35:18.546Z,97020.14
2023-11-15T08:37:46.244Z,97010.20
2023-11-15T08:40:23.202Z,97013.52
2023-11-15T08:42:58.580Z,97012.16
2023-11-15T08:45:27.084Z,97009.09
2023-11-15T08:47:59.219Z,97008.44
2023-11-15T08:50:30.654Z,97012.41
2023-11-15T08:52:58.102Z,97016.30
2023-11-15T08:55:25.655Z,97019.27
2023-11-15T08:57:53.206Z,97021.15
2023-11-15T09:00:21.328Z,97023.06
2023-11-15T09:02:50.097Z,97022.96
2023-11-15T09:05:21.146Z,97019.64
2023-11-15T09:07:48.999Z,97026.50
2023-11-15T09:10:17.620Z,97024.34
2023-11-15T09:12:48.143Z,97024.72
2023-11-15T09:15:16.211Z,97021.95
2023-11-15T09:17:48.071Z,97026.45
2023-11-15T09:20:22.938Z,97027.97
2023-11-15T09:22:50.951Z,97026.56
2023-11-15T09:25:31.856Z,97026.54
2023-11-15T09:28:00.815Z,97029.42
2023-11-15T09:30:28.484Z,97033.75
2023-11-15T09:32:56.395Z,97026.17
2023-11-15T09:35:30.508Z,97026.68
2023-11-15T09:37:58.678Z,97024.20
2023-11-15T09:41:59.168Z,97022.42
2023-11-15T09:44:27.377Z,97021.27
2023-11-15T09:46:59.233Z,97018.52
2023-11-15T09:49:29.661Z,97019.09
2023-11-15T09:52:00.464Z,97024.04
2023-11-15T09:54:30.337Z,97024.02
2023-11-15T09:57:00.003Z,97022.94
2023-11-15T09:59:30.823Z,97021.53
2023-11-15T10:01:58.938Z,97021.23
2023-11-15T10:04:29.476Z,97020.92
2023-11-15T10:07:03.879Z,97024.80
2023-11-15T10:09:44.882Z,97026.25
2023-11-15T10:12:12.463Z,97022.73
2023-11-15T10:14:54.318Z,97021.04
2023-11-15T10:17:39.814Z,97018.72
2023-11-15T10:20:37.346Z,97015.94
2023-11-15T10:23:28.425Z,97015.44
2023-11-15T10:25:57.238Z,97014.50
2023-11-15T10:28:34.043Z,97009.54
2023-11-15T10:31:06.724Z,97012.11
2023-11-15T10:33:39.040Z,97007.97
2023-11-15T10:36:18.013Z,97008.79
2023-11-15T10:38:55.511Z,97010.34
2023-11-15T10:41:24.157Z,97011.64
2023-11-15T10:43:52.746Z,97010.70
2023-11-15T10:46:32.500Z,97010.17
2023-11-15T10:49:01.780Z,97009.61
2023-11-15T10:51:36.985Z,97014.08
2023-11-15T10:54:04.576Z,97011.90
2023-11-15T10:56:32.537Z,97009.38
2023-11-15T10:59:01.377Z,97011.26
2023-11-15T11:01:33.585Z,97015.75
2023-11-15T11:04:06.253Z,97018.66
2023-11-15T11:06:53.870Z,97019.36
2023-11-15T11:09:47.073Z,97024.94
2023-11-15T11:12:20.401Z,97029.67
2023-11-15T11:14:50.539Z,97033.56
2023-11-15T11:17:34.712Z,97033.13
2023-11-15T11:20:03.725Z,97035.30
2023-11-15T11:22:34.231Z,97041.90
2023-11-15T11:25:08.400Z,97040.23
2023-11-15T11:27:38.266Z,97045.92
2023-11-15T11:30:16.068Z,97045.50
2023-11-15T11:32:46.311Z,97044.48
2023-11-15T11:35:15.258Z,97038.98
2023-11-15T11:37:55.065Z,97035.14
2023-11-15T11:40:26.708Z,97038.67
2023-11-15T11:42:54.368Z,97033.69
2023-11-15T11:45:24.630Z,97033.84
2023-11-15T11:47:52.669Z,97032.23
2023-11-15T11:50:21.519Z,97036.47
2023-11-15T11:52:56.325Z,97040.98
2023-11-15T11:55:24.721Z,97040.43
2023-11-15T11:57:52.338Z,97043.65
2023-11-15T12:00:22.724Z,97044.86
2023-11-15T12:03:00.613Z,97047.58
2023-11-15T12:05:33.349Z,97049.17
2023-11-15T12:08:02.700Z,97056.77
2023-11-15T12:10:30.482Z,97060.75
2023-11-15T12:13:00.880Z,97060.20
2023-11-15T12:15:28.682Z,97062.11
2023-11-15T12:17:58.663Z,97065.25
2023-11-15T12:20:27.249Z,97061.64
2023-11-15T12:23:11.151Z,97062.88
2023-11-15T12:25:54.583Z,97070.73
2023-11-15T12:28:25.188Z,97071.90
2023-11-15T12:30:55.408Z,97078.84
2023-11-15T12:33:23.156Z,97077.80
2023-11-15T12:35:52.847Z,97083.20
2023-11-15T12:38:20.799Z,97083.48
2023-11-15T12:40:48.917Z,97082.54
2023-11-15T12:43:24.103Z,97081.72
2023-11-15T12:45:53.229Z,97086.36
2023-11-15T12:48:23.632Z,97096.02
2023-11-15T12:51:00.316Z,97103.05
2023-11-15T12:53:31.852Z,97107.10
2023-11-15T12:56:00.051Z,97108.53
2023-11-15T12:58:30.678Z,97109.63
2023-11-15T13:00:59.259Z,97104.94
2023-11-15T13:03:28.222Z,97114.44
2023-11-15T13:06:08.815Z,97115.20
2023-11-15T13:08:36.804Z,97112.55
2023-11-15T13:11:04.659Z,97116.79
2023-11-15T13:13:33.259Z,97120.95
2023-11-15T13:16:00.865Z,97123.27
2023-11-15T13:18:28.509Z,97128.23
2023-11-15T13:20:59.363Z,97126.98
2023-11-15T13:23:28.428Z,97133.79
2023-11-15T13:25:55.947Z,97132.91
2023-11-15T13:28:23.435Z,97135.84
2023-11-15T13:30:51.079Z,97131.98
2023-11-15T13:33:19.485Z,97134.46
2023-11-15T13:35:47.702Z,97138.05
2023-11-15T13:38:16.059Z,97135.96
2023-11-15T13:40:46.035Z,97132.89
2023-11-15T13:43:13.772Z,97139.95
2023-11-15T13:45:43.466Z,97140.27
2023-11-15T13:48:11.553Z,97145.90
2023-11-15T13:50:40.452Z,97147.80
2023-11-15T13:53:07.983Z,97145.38
2023-11-15T13:55:35.488Z,97150.45
2023-11-15T13:58:02.932Z,97155.27
2023-11-15T14:00:34.932Z,97161.11
2023-11-15T14:03:07.794Z,97170.17
2023-11-15T14:05:35.535Z,97173.87
2023-11-15T14:08:05.930Z,97180.42
2023-11-15T14:10:33.526Z,97184.42
2023-11-15T14:13:06.120Z,97188.88
2023-11-15T14:15:34.428Z,97187.64
2023-11-15T14:18:05.069Z,97191.65
2023-11-15T14:20:32.842Z,97199.88
2023-11-15T14:23:00.402Z,97200.96
2023-11-15T14:25:33.294Z,97204.60
2023-11-15T14:28:03.678Z,97205.50
2023-11-15T14:30:31.329Z,97203.15
2023-11-15T14:33:01.271Z,97199.29
2023-11-15T14:35:29.766Z,97202.48
2023-11-15T14:37:57.557Z,97201.81
2023-11-15T14:40:25.879Z,97206.66
2023-11-15T14:42:57.007Z,97208.65
2023-11-15T14:45:26.852Z,97216.27
2023-11-15T14:47:54.667Z,97219.02
2023-11-15T14:50:23.982Z,97222.19
2023-11-15T14:52:57.104Z,97228.20
2023-11-15T14:55:29.398Z,97229.13
2023-11-15T14:57:58.090Z,97237.30
2023-11-15T15:00:26.906Z,97238.14
2023-11-15T15:03:04.234Z,97236.20
2023-11-15T15:05:31.959Z,97234.40
2023-11-15T15:07:59.642Z,97235.47
2023-11-15T15:10:29.028Z,97239.46
2023-11-15T15:12:56.676Z,97247.46
2023-11-15T15:15:24.751Z,97247.80
2023-11-15T15:17:53.050Z,97246.36
2023-11-15T15:20:24.533Z,97253.79
2023-11-15T15:22:54.875Z,97254.79
2023-11-15T15:25:23.077Z,97257.40
2023-11-15T15:27:51.136Z,97261.66
2023-11-15T15:30:19.477Z,97267.10
2023-11-15T15:32:47.935Z,97269.02
2023-11-15T15:35:16.276Z,97274.81
2023-11-15T15:37:47.481Z,97275.88
2023-11-15T15:40:18.109Z,97278.19
2023-11-15T15:42:48.537Z,97281.48
2023-11-15T15:45:16.604Z,97283.20
2023-11-15T15:47:47.491Z,97284.34
2023-11-15T15:50:15.440Z,97292.36
2023-11-15T15:52:43.292Z,97294.67
2023-11-15T15:55:12.000Z,97298.98
2023-11-15T15:57:39.720Z,97301.25
2023-11-15T16:00:08.239Z,97306.38
2023-11-15T16:02:37.223Z,97310.77
2023-11-15T16:05:05.892Z,97315.46
2023-11-15T16:07:33.589Z,97312.98
2023-11-15T16:10:07.400Z,97320.86
2023-11-15T16:12:39.974Z,97321.73
2023-11-15T16:15:08.434Z,97327.17
2023-11-15T16:17:36.216Z,97323.77
2023-11-15T16:20:04.836Z,97330.69
2023-11-15T16:22:32.525Z,97335.61
2023-11-15T16:25:00.006Z,97339.29
2023-11-15T16:27:34.283Z,97342.03
2023-11-15T16:30:11.022Z,97344.82
2023-11-15T16:32:42.034Z,97352.05
2023-11-15T16:35:13.947Z,97356.33
2023-11-15T16:37:43.205Z,97358.13
2023-11-15T16:40:12.724Z,97364.15
2023-11-15T16:42:41.079Z,97361.11
2023-11-15T16:45:09.907Z,97365.75
2023-11-15T16:47:39.638Z,97363.45
2023-11-15T16:50:08.418Z,97372.61
2023-11-15T16:52:36.089Z,97372.64
2023-11-15T16:55:05.424Z,97377.09
2023-11-15T16:57:34.184Z,97378.48
2023-11-15T17:00:01.891Z,97377.20
2023-11-15T17:02:29.611Z,97376.70
2023-11-15T17:04:58.454Z,97382.25
2023-11-15T17:07:25.943Z,97381.96
2023-11-15T17:09:53.640Z,97384.61
2023-11-15T17:12:25.229Z,97385.11
2023-11-15T17:14:53.157Z,97392.10
2023-11-15T17:17:21.127Z,97395.23
2023-11-15T17:19:49.703Z,97393.67
2023-11-15T17:22:20.905Z,97392.48
2023-11-15T17:24:49.066Z,97394.84
2023-11-15T17:27:16.921Z,97394.20
2023-11-15T17:29:49.869Z,97395.17
2023-11-15T17:32:17.927Z,97398.50
2023-11-15T17:34:50.103Z,97400.33
2023-11-15T17:37:18.212Z,97406.55
2023-11-15T17:39:45.861Z,97408.27
2023-11-15T17:42:13.477Z,97406.16
2023-11-15T17:44:42.021Z,97410.88
2023-11-15T17:47:13.017Z,97415.27
2023-11-15T17:49:40.573Z,97413.11
2023-11-15T17:52:11.299Z,97419.13
2023-11-15T17:54:39.209Z,97424.35
2023-11-15T17:57:06.999Z,97422.42
2023-11-15T17:59:35.010Z,97421.54
2023-11-15T18:02:05.438Z,97420.25
2023-11-15T18:04:32.943Z,97419.04
2023-11-15T18:07:00.537Z,97420.34
2023-11-15T18:09:29.366Z,97423.11
2023-11-15T18:11:57.018Z,97422.45
2023-11-15T18:14:24.630Z,97417.38
2023-11-15T18:16:54.395Z,97418.59
2023-11-15T18:19:22.992Z,97424.46
2023-11-15T18:21:51.953Z,97422.23
2023-11-15T18:24:19.545Z,97415.55
2023-11-15T18:26:47.240Z,97416.52
2023-11-15T18:29:14.768Z,97419.77
2023-11-15T18:31:44.613Z,97421.21
2023-11-15T18:34:12.548Z,97424.76
2023-11-15T18:36:44.326Z,97431.13
2023-11-15T18:39:16.516Z,97438.46
2023-11-15T18:41:45.791Z,97439.81
2023-11-15T18:44:17.176Z,97443.25
2023-11-15T18:46:49.100Z,97445.38
2023-11-15T18:49:18.564Z,97446.86
2023-11-15T18:51:50.530Z,97448.12
2023-11-15T18:54:18.159Z,97448.03
2023-11-15T18:56:46.258Z,97447.91
2023-11-15T18:59:14.935Z,97447.23
2023-11-15T19:01:45.393Z,97455.12
2023-11-15T19:04:13.384Z,97460.04
2023-11-15T19:06:41.124Z,97459.27
2023-11-15T19:09:12.291Z,97459.87
2023-11-15T19:11:40.576Z,97462.42
2023-11-15T19:14:09.467Z,97457.00
2023-11-15T19:16:37.657Z,97464.44
2023-11-15T19:19:06.092Z,97465.81
2023-11-15T19:21:33.669Z,97473.29
2023-11-15T19:24:01.629Z,97474.98
2023-11-15T19:26:32.218Z,97480.51
2023-11-15T19:28:59.738Z,97482.62
2023-11-15T19:31:27.231Z,97480.77
2023-11-15T19:33:55.287Z,97485.98
2023-11-15T19:36:23.165Z,97487.90
2023-11-15T19:38:50.733Z,97493.96
2023-11-15T19:41:21.370Z,97494.11
2023-11-15T19:43:49.329Z,97499.27
2023-11-15T19:46:21.081Z,97500.20
2023-11-15T19:48:49.478Z,97498.13
2023-11-15T19:51:36.935Z,97498.83
2023-11-15T19:54:08.629Z,97509.63
2023-11-15T19:56:36.486Z,97511.52
2023-11-15T19:59:05.174Z,97518.66
2023-11-15T20:01:32.872Z,97522.84
2023-11-15T20:04:04.620Z,97525.98
2023-11-15T20:06:32.785Z,97527.34
2023-11-15T20:09:00.471Z,97536.23
2023-11-15T20:11:32.575Z,97539.83
2023-11-15T20:14:01.154Z,97541.49
2023-11-15T20:16:29.445Z,97544.18
2023-11-15T20:18:57.481Z,97544.53
2023-11-15T20:21:25.083Z,97540.66
2023-11-15T20:23:54.434Z,97540.80
2023-11-15T20:26:22.047Z,97540.41
2023-11-15T20:28:49.644Z,97543.20
2023-11-15T20:31:17.357Z,97544.36
2023-11-15T20:33:44.901Z,97543.86
2023-11-15T20:36:14.040Z,97544.10
2023-11-15T20:38:42.496Z,97547.43
2023-11-15T20:41:11.635Z,97543.59
2023-11-15T20:43:39.094Z,97540.65
2023-11-15T20:46:17.350Z,97540.73
2023-11-15T20:48:47.441Z,97541.69
2023-11-15T20:51:15.928Z,97545.56
2023-11-15T20:53:43.509Z,97549.41
2023-11-15T20:56:11.254Z,97552.50
2023-11-15T20:58:38.739Z,97551.52
2023-11-15T21:01:07.804Z,97556.34
2023-11-15T21:03:35.512Z,97557.80
2023-11-15T21:06:05.142Z,97559.48
2023-11-15T21:08:33.559Z,97567.43
2023-11-15T21:11:02.155Z,97568.86
2023-11-15T21:13:32.319Z,97572.15
2023-11-15T21:16:00.094Z,97569.98
2023-11-15T21:18:27.671Z,97570.49
2023-11-15T21:20:59.101Z,97571.41
2023-11-15T21:23:30.261Z,97575.42
2023-11-15T21:25:57.842Z,97580.48
2023-11-15T21:28:25.706Z,97574.23
2023-11-15T21:30:53.289Z,97572.69
2023-11-15T21:33:21.005Z,97575.95
2023-11-15T21:35:50.571Z,97586.05
2023-11-15T21:38:19.173Z,97586.13
2023-11-15T21:40:46.736Z,97587.70
2023-11-15T21:43:14.808Z,97594.44
2023-11-15T21:45:42.368Z,97599.55
2023-11-15T21:48:10.298Z,97605.06
2023-11-15T21:50:38.017Z,97605.95
2023-11-15T21:53:05.758Z,97608.20
2023-11-15T21:55:35.698Z,97608.08
2023-11-15T21:59:45.181Z,97611.19
2023-11-15T22:02:12.716Z,97618.11
2023-11-15T22:04:41.476Z,97621.51
2023-11-15T22:07:09.578Z,97622.84
2023-11-15T22:09:37.102Z,97618.66
2023-11-15T22:12:05.084Z,97623.11
2023-11-15T22:14:32.966Z,97626.98
2023-11-15T22:17:00.524Z,97627.97
2023-11-15T22:19:30.397Z,97631.41
2023-11-15T22:21:58.017Z,97630.72
2023-11-15T22:24:25.574Z,97636.47
2023-11-15T22:26:53.092Z,97635.70
2023-11-15T22:29:20.586Z,97638.38
2023-11-15T22:31:51.342Z,97641.20
2023-11-15T22:34:20.574Z,97639.35
2023-11-15T22:36:48.015Z,97640.52
2023-11-15T22:39:15.985Z,97638.03
2023-11-15T22:41:43.525Z,97646.02
2023-11-15T22:44:11.105Z,97638.98
2023-11-15T22:46:38.652Z,97642.59
2023-11-15T22:49:06.118Z,97648.80
2023-11-15T22:51:33.665Z,97649.45
2023-11-15T22:54:01.287Z,97656.49
2023-11-15T22:56:29.259Z,97653.21
2023-11-15T22:58:56.759Z,97651.54
2023-11-15T23:01:24.397Z,97647.94
2023-11-15T23:03:53.247Z,97645.98
2023-11-15T23:06:21.206Z,97647.91
2023-11-15T23:08:51.653Z,97654.36
2023-11-15T23:11:20.234Z,97659.33
2023-11-15T23:13:49.247Z,97658.38
2023-11-15T23:16:16.723Z,97661.52
2023-11-15T23:18:45.133Z,97661.15
2023-11-15T23:21:12.752Z,97662.92
2023-11-15T23:23:40.288Z,97661.80
2023-11-15T23:26:11.537Z,97664.85
2023-11-15T23:28:39.045Z,97669.05
2023-11-15T23:31:07.883Z,97664.61
2023-11-15T23:33:35.651Z,97667.23
2023-11-15T23:36:03.369Z,97667.02
2023-11-15T23:38:30.913Z,97668.16
2023-11-15T23:40:58.398Z,97665.00
2023-11-15T23:43:29.915Z,97666.20
2023-11-15T23:45:58.695Z,97667.11
2023-11-15T23:48:26.198Z,97665.75
2023-11-15T23:50:56.669Z,97669.15
2023-11-15T23:53:24.233Z,97668.08
2023-11-15T23:55:51.764Z,97667.44
2023-11-15T23:58:20.571Z,97668.65
